Time;durP1;ratioP1;P1;durP2;ratioP2;P2;SDS_P1;SDS_P2;PMS_P1;PMS_P2;Temp;Humidity;BMP_temperature;BMP_pressure;BME280_temperature;BME280_humidity;BME280_pressure;Samples;Min_cycle;Max_cycle;Signal;HPM_P1;HPM_P2
2022/04/25 00:02:25;;;;;;;3.87;2.70;;;12.50;92.40;;;;;;4954174;29;20127;-73
2022/04/25 00:04:51;;;;;;;3.83;2.80;;;12.50;92.30;;;;;;4955547;29;20064;-73
2022/04/25 00:07:17;;;;;;;4.50;3.00;;;12.40;92.40;;;;;;4955338;29;20038;-73
2022/04/25 00:09:44;;;;;;;4.63;3.17;;;12.40;92.50;;;;;;4955404;29;20402;-73
2022/04/25 00:12:11;;;;;;;4.63;2.90;;;12.30;92.60;;;;;;4955307;29;20031;-73
2022/04/25 00:14:37;;;;;;;5.47;3.00;;;12.30;92.70;;;;;;4970328;28;20046;-73
2022/04/25 00:17:03;;;;;;;6.17;3.40;;;12.40;92.60;;;;;;4955228;29;20027;-73
2022/04/25 00:19:29;;;;;;;5.00;3.57;;;12.40;92.80;;;;;;4955554;29;20035;-72
2022/04/25 00:21:55;;;;;;;7.20;3.87;;;12.40;92.80;;;;;;4955517;29;20428;-72
2022/04/25 00:24:21;;;;;;;5.27;3.40;;;12.40;92.80;;;;;;4955582;29;20031;-73
2022/04/25 00:26:47;;;;;;;5.00;3.50;;;12.40;93.00;;;;;;4955142;29;20034;-72
2022/04/25 00:29:13;;;;;;;6.70;3.30;;;12.40;93.10;;;;;;4970359;28;20031;-73
2022/04/25 00:31:40;;;;;;;5.83;3.30;;;12.40;93.20;;;;;;4953796;28;20369;-73
2022/04/25 00:34:06;;;;;;;6.07;3.87;;;12.40;93.30;;;;;;4955254;29;20050;-73
2022/04/25 00:36:32;;;;;;;8.10;3.87;;;12.40;93.50;;;;;;4955034;29;20532;-73
2022/04/25 00:38:58;;;;;;;7.30;4.40;;;12.40;93.70;;;;;;4969935;28;20405;-73
2022/04/25 00:41:24;;;;;;;6.10;3.97;;;12.40;93.80;;;;;;4954782;29;20027;-73
2022/04/25 00:43:55;;;;;;;6.77;3.90;;;12.30;94.00;;;;;;4954941;29;20040;-73
2022/04/25 00:46:22;;;;;;;6.20;4.13;;;12.30;94.10;;;;;;4954863;29;20687;-73
2022/04/25 00:48:48;;;;;;;6.30;3.70;;;12.30;94.10;;;;;;4954709;29;20035;-73
2022/04/25 00:51:16;;;;;;;5.57;4.20;;;12.20;94.20;;;;;;4954937;29;20032;-73
2022/04/25 00:53:47;;;;;;;5.80;3.50;;;12.30;94.20;;;;;;4954590;29;20027;-73
2022/04/25 00:56:15;;;;;;;6.40;3.80;;;12.20;93.90;;;;;;4954546;28;20023;-73
2022/04/25 00:58:46;;;;;;;5.53;3.28;;;12.30;93.70;;;;;;4954367;29;20033;-73
2022/04/25 01:01:13;;;;;;;5.67;3.67;;;12.20;93.60;;;;;;4954543;29;20055;-73
2022/04/25 01:03:39;;;;;;;6.57;3.60;;;12.20;93.60;;;;;;4954219;29;20488;-73
2022/04/25 01:06:05;;;;;;;7.23;4.40;;;12.10;93.80;;;;;;4954274;29;20114;-73
2022/04/25 01:08:34;;;;;;;6.07;4.20;;;12.10;94.10;;;;;;4954141;29;20503;-73
2022/04/25 01:11:04;;;;;;;6.22;3.70;;;12.10;94.30;;;;;;4954270;29;20078;-73
2022/04/25 01:13:31;;;;;;;5.37;3.60;;;12.10;94.40;;;;;;4954279;29;20054;-73
2022/04/25 01:15:57;;;;;;;6.53;3.63;;;12.00;94.50;;;;;;4954066;29;20118;-73
2022/04/25 01:18:22;;;;;;;7.53;3.93;;;12.00;94.40;;;;;;4954169;29;20031;-72
2022/04/25 01:20:52;;;;;;;5.07;3.33;;;12.00;94.40;;;;;;4954202;29;20102;-71
2022/04/25 01:28:52;;;;;;;3.73;2.63;;;12.10;93.90;;;;;;4953882;28;20031;-71
2022/04/25 01:31:18;;;;;;;3.97;2.73;;;12.10;93.60;;;;;;4953795;29;20035;-71
2022/04/25 01:33:44;;;;;;;5.00;2.80;;;12.10;93.20;;;;;;4953600;29;20107;-72
2022/04/25 01:36:11;;;;;;;3.70;2.30;;;12.10;93.00;;;;;;4953827;29;20031;-72
2022/04/25 01:38:37;;;;;;;4.10;2.30;;;12.10;92.90;;;;;;4953734;29;20058;-72
2022/04/25 01:41:03;;;;;;;5.07;2.90;;;12.10;92.70;;;;;;4953749;29;20059;-72
2022/04/25 01:43:38;;;;;;;5.83;3.23;;;12.10;92.80;;;;;;4953158;28;20031;-72
2022/04/25 01:46:05;;;;;;;4.80;3.00;;;12.00;92.90;;;;;;4968443;28;20094;-72
2022/04/25 01:48:31;;;;;;;4.43;2.80;;;12.00;93.10;;;;;;4952239;29;20043;-72
2022/04/25 01:50:57;;;;;;;5.80;2.60;;;12.00;93.10;;;;;;4953505;29;20035;-72
2022/04/25 01:53:23;;;;;;;4.77;2.53;;;12.00;93.20;;;;;;4953541;29;20039;-72
2022/04/25 01:55:50;;;;;;;4.10;2.60;;;12.00;93.20;;;;;;4953350;29;20477;-72
2022/04/25 01:58:15;;;;;;;4.93;3.13;;;12.10;93.10;;;;;;4953239;29;20476;-72
2022/04/25 02:00:43;;;;;;;4.67;2.77;;;12.00;93.10;;;;;;4951995;29;20038;-72
2022/04/25 02:03:10;;;;;;;4.37;2.87;;;12.00;93.20;;;;;;4953171;29;20093;-72
2022/04/25 02:05:36;;;;;;;3.73;2.70;;;11.90;93.20;;;;;;4952007;29;20046;-72
2022/04/25 02:08:02;;;;;;;5.10;2.97;;;11.90;93.20;;;;;;4953063;29;20031;-72
2022/04/25 02:10:28;;;;;;;4.47;2.93;;;11.90;93.30;;;;;;4953168;29;20062;-72
2022/04/25 02:12:54;;;;;;;4.17;2.90;;;11.80;93.40;;;;;;4953059;29;20107;-72
2022/04/25 02:15:20;;;;;;;4.10;2.90;;;11.80;93.50;;;;;;4953077;29;20507;-72
2022/04/25 02:17:46;;;;;;;4.50;2.77;;;11.80;93.50;;;;;;4953032;29;20436;-72
2022/04/25 02:20:13;;;;;;;3.83;2.70;;;11.80;93.50;;;;;;4953151;29;20031;-72
2022/04/25 02:22:39;;;;;;;3.20;2.47;;;11.80;93.40;;;;;;4952909;29;20484;-72
2022/04/25 02:25:06;;;;;;;3.73;2.40;;;11.80;93.30;;;;;;4967873;28;20102;-72
2022/04/25 02:27:32;;;;;;;4.43;2.73;;;11.80;93.20;;;;;;4951458;29;20094;-72
2022/04/25 02:29:59;;;;;;;3.70;2.60;;;11.80;93.20;;;;;;4952789;29;20061;-72
2022/04/25 02:32:27;;;;;;;3.90;2.60;;;11.80;93.40;;;;;;4952833;29;20034;-72
2022/04/25 02:34:57;;;;;;;5.50;2.87;;;11.80;93.40;;;;;;4952955;29;20035;-72
2022/04/25 02:37:23;;;;;;;3.40;2.40;;;11.70;93.40;;;;;;4952832;29;20461;-72
2022/04/25 02:39:50;;;;;;;4.10;2.63;;;11.70;93.40;;;;;;4952689;29;20130;-72
2022/04/25 02:42:16;;;;;;;5.73;3.03;;;11.70;93.50;;;;;;4974233;23;20202;-80
2022/04/25 02:44:42;;;;;;;4.30;2.80;;;11.70;93.60;;;;;;4952538;29;20043;-80
2022/04/25 02:47:08;;;;;;;5.03;2.67;;;11.70;93.70;;;;;;4952332;29;20114;-80
2022/04/25 02:49:34;;;;;;;4.63;2.80;;;11.70;93.70;;;;;;4952548;29;20040;-80
2022/04/25 02:52:00;;;;;;;6.30;3.00;;;11.70;93.70;;;;;;4952558;29;20031;-80
2022/04/25 02:54:26;;;;;;;4.90;2.70;;;11.70;93.70;;;;;;4954065;28;20472;-80
2022/04/25 02:56:52;;;;;;;3.57;2.57;;;11.60;93.80;;;;;;4956242;29;20038;-80
2022/04/25 02:59:19;;;;;;;4.17;2.87;;;11.70;93.80;;;;;;4956216;29;20031;-80
2022/04/25 03:01:45;;;;;;;5.47;2.87;;;11.60;93.80;;;;;;4956511;29;20027;-80
2022/04/25 03:04:11;;;;;;;4.50;2.90;;;11.60;94.00;;;;;;4956442;29;20106;-80
2022/04/25 03:06:37;;;;;;;4.63;2.87;;;11.60;94.00;;;;;;4956094;29;20500;-80
2022/04/25 03:09:03;;;;;;;5.37;3.43;;;11.50;94.20;;;;;;4956102;29;20027;-81
2022/04/25 03:11:28;;;;;;;4.03;2.80;;;11.40;94.40;;;;;;4955936;29;20118;-80
2022/04/25 03:13:55;;;;;;;4.33;2.87;;;11.30;94.60;;;;;;4956164;29;20107;-80
2022/04/25 03:16:21;;;;;;;4.67;3.20;;;11.30;94.70;;;;;;4956027;29;20752;-80
2022/04/25 03:18:48;;;;;;;3.90;2.80;;;11.40;94.70;;;;;;4955953;29;20171;-81
2022/04/25 03:21:14;;;;;;;4.70;2.70;;;11.40;94.70;;;;;;4956281;29;20396;-80
2022/04/25 03:23:39;;;;;;;4.40;2.90;;;11.50;94.70;;;;;;4955789;29;20039;-80
2022/04/25 03:26:06;;;;;;;4.30;2.87;;;11.50;94.60;;;;;;4955880;29;20039;-80
2022/04/25 03:28:32;;;;;;;4.43;3.13;;;11.50;94.60;;;;;;4955778;29;20472;-80
2022/04/25 03:30:58;;;;;;;4.70;2.90;;;11.40;95.00;;;;;;4955904;29;20091;-79
2022/04/25 03:33:25;;;;;;;4.00;2.73;;;11.30;94.90;;;;;;4955845;29;20027;-80
2022/04/25 03:35:50;;;;;;;5.43;3.10;;;11.20;95.10;;;;;;4955893;29;20038;-80
2022/04/25 03:38:18;;;;;;;3.90;2.77;;;11.20;95.20;;;;;;4955751;29;20483;-80
2022/04/25 03:40:44;;;;;;;4.83;3.23;;;11.20;95.20;;;;;;4955753;29;20023;-80
2022/04/25 03:43:10;;;;;;;5.00;3.27;;;11.10;95.20;;;;;;4955550;29;20081;-80
2022/04/25 03:45:37;;;;;;;5.03;3.10;;;11.20;95.30;;;;;;4955632;29;20504;-80
2022/04/25 03:48:03;;;;;;;5.17;3.50;;;11.10;95.40;;;;;;4955349;29;20484;-80
2022/04/25 03:50:31;;;;;;;5.50;3.67;;;11.10;95.50;;;;;;4955771;29;20043;-79
2022/04/25 03:53:03;;;;;;;5.83;3.83;;;11.00;95.80;;;;;;4955371;29;20051;-80
2022/04/25 03:58:13;;;;;;;5.93;3.60;;;10.80;96.10;;;;;;4955221;29;20373;-80
2022/04/25 04:00:39;;;;;;;6.13;3.60;;;10.80;96.30;;;;;;4955493;29;20131;-79
2022/04/25 04:03:06;;;;;;;4.60;3.60;;;10.70;96.50;;;;;;4955359;29;20130;-88
2022/04/25 04:05:32;;;;;;;6.13;3.80;;;10.70;96.50;;;;;;4937677;29;20027;-85
2022/04/25 04:07:58;;;;;;;5.93;3.93;;;10.80;96.50;;;;;;4937919;29;20050;-86
2022/04/25 04:10:23;;;;;;;7.40;3.73;;;10.70;96.70;;;;;;4943613;29;20031;-85
2022/04/25 04:12:49;;;;;;;6.33;3.40;;;10.70;96.80;;;;;;4950959;28;20122;-83
2022/04/25 04:15:17;;;;;;;7.17;4.10;;;10.80;97.00;;;;;;4952574;29;20046;-85
2022/04/25 04:17:43;;;;;;;6.40;3.57;;;10.80;96.80;;;;;;4952243;29;20090;-84
2022/04/25 04:20:12;;;;;;;7.63;3.60;;;10.70;96.80;;;;;;4953079;29;20118;-84
2022/04/25 04:22:38;;;;;;;5.90;3.53;;;10.60;96.90;;;;;;4953370;29;20603;-84
2022/04/25 04:25:13;;;;;;;6.00;3.90;;;10.60;97.00;;;;;;4953076;29;20571;-87
2022/04/25 04:27:42;;;;;;;7.20;4.43;;;10.70;97.00;;;;;;4953068;28;20031;-85
2022/04/25 04:30:12;;;;;;;7.27;4.20;;;10.60;96.80;;;;;;4945212;29;20043;-84
2022/04/25 04:32:40;;;;;;;6.50;3.83;;;10.50;97.00;;;;;;4952861;29;20027;-84
2022/04/25 04:35:10;;;;;;;6.33;3.93;;;10.50;97.10;;;;;;4936693;29;20395;-85
2022/04/25 04:37:36;;;;;;;;;;;10.40;97.20;;;;;;4953186;29;20038;-85
2022/04/25 04:42:47;;;;;;;6.43;3.77;;;10.40;97.50;;;;;;4952739;29;20472;-85
2022/04/25 04:45:13;;;;;;;11.23;4.17;;;10.40;97.60;;;;;;4935446;29;20055;-85
2022/04/25 04:47:40;;;;;;;8.00;3.97;;;10.40;97.80;;;;;;4952521;29;20559;-85
2022/04/25 04:50:10;;;;;;;5.90;3.97;;;10.40;97.70;;;;;;4952619;29;20075;-84
2022/04/25 04:52:36;;;;;;;6.20;4.10;;;10.30;97.70;;;;;;4935800;29;20111;-85
2022/04/25 04:55:02;;;;;;;8.57;4.40;;;10.40;97.80;;;;;;4952817;29;20027;-84
2022/04/25 04:57:28;;;;;;;7.53;4.60;;;10.50;97.80;;;;;;4952243;29;20039;-84
2022/04/25 04:59:53;;;;;;;8.20;4.07;;;10.50;97.70;;;;;;4952702;29;20058;-84
2022/04/25 05:02:19;;;;;;;7.10;4.40;;;10.50;97.90;;;;;;4935241;29;20114;-84
2022/04/25 05:04:45;;;;;;;5.97;4.30;;;10.60;97.90;;;;;;4952657;29;20419;-84
2022/04/25 05:07:11;;;;;;;5.13;3.70;;;10.60;98.10;;;;;;4952558;29;20030;-84
2022/04/25 05:09:37;;;;;;;7.03;4.40;;;10.50;98.20;;;;;;4952515;29;20031;-84
2022/04/25 05:12:03;;;;;;;8.70;4.13;;;10.60;98.30;;;;;;4951121;29;20055;-84
2022/04/25 05:14:28;;;;;;;7.00;4.40;;;10.60;98.30;;;;;;4935366;29;20138;-84
2022/04/25 05:16:54;;;;;;;7.10;4.53;;;10.60;98.70;;;;;;4951789;28;20530;-82
2022/04/25 05:19:20;;;;;;;8.33;4.80;;;10.60;99.00;;;;;;4952744;29;20411;-83
2022/04/25 05:21:47;;;;;;;6.07;4.40;;;10.70;99.50;;;;;;4952151;29;20118;-86
2022/04/25 05:24:12;;;;;;;7.37;4.60;;;10.80;99.70;;;;;;4919680;29;20035;-85
2022/04/25 05:26:41;;;;;;;7.93;4.73;;;10.70;99.90;;;;;;4951190;29;20034;-83
2022/04/25 05:29:07;;;;;;;8.30;5.67;;;10.70;99.90;;;;;;4952404;29;20051;-81
2022/04/25 05:31:33;;;;;;;9.00;5.27;;;10.70;99.90;;;;;;4951860;29;20818;-81
2022/04/25 05:34:00;;;;;;;6.53;4.87;;;10.80;99.90;;;;;;4952111;29;20480;-81
2022/04/25 05:36:25;;;;;;;7.80;4.70;;;10.80;99.90;;;;;;4952301;29;20126;-81
2022/04/25 05:38:51;;;;;;;7.83;4.90;;;10.80;99.90;;;;;;4951990;29;20054;-82
2022/04/25 05:41:18;;;;;;;6.87;4.87;;;10.90;99.90;;;;;;4951035;29;20070;-82
2022/04/25 05:43:43;;;;;;;7.50;4.57;;;10.90;99.90;;;;;;4934488;29;20117;-81
2022/04/25 05:46:09;;;;;;;6.77;4.20;;;10.90;99.90;;;;;;4934650;29;20178;-81
2022/04/25 05:54:05;;;;;;;9.17;5.53;;;10.90;99.90;;;;;;4952092;29;20027;-80
2022/04/25 05:56:30;;;;;;;7.93;5.37;;;10.90;99.90;;;;;;4951241;29;20038;-80
2022/04/25 05:58:56;;;;;;;7.03;4.73;;;11.00;99.90;;;;;;4935003;29;20031;-80
2022/04/25 06:01:22;;;;;;;7.00;4.90;;;11.00;99.90;;;;;;4951784;29;20511;-85
2022/04/25 06:03:47;;;;;;;8.00;5.20;;;11.00;99.90;;;;;;4934644;29;20043;-83
2022/04/25 06:06:13;;;;;;;7.00;5.07;;;11.00;99.90;;;;;;4951499;29;20097;-82
2022/04/25 06:08:39;;;;;;;7.77;5.20;;;11.10;99.90;;;;;;4951347;29;20035;-82
2022/04/25 06:11:05;;;;;;;8.83;5.50;;;11.10;99.90;;;;;;4933508;29;20047;-80
2022/04/25 06:13:30;;;;;;;7.57;5.40;;;11.10;99.90;;;;;;4951786;29;20024;-80
2022/04/25 06:15:56;;;;;;;9.10;5.37;;;11.10;99.90;;;;;;4951474;29;20067;-81
2022/04/25 06:18:25;;;;;;;7.23;5.63;;;11.10;99.90;;;;;;4951737;29;20027;-82
2022/04/25 06:20:51;;;;;;;7.60;5.50;;;11.00;99.90;;;;;;4951693;29;20031;-83
2022/04/25 06:23:18;;;;;;;11.10;5.93;;;11.00;99.90;;;;;;4951268;29;20101;-82
2022/04/25 06:25:43;;;;;;;9.77;5.63;;;11.00;99.90;;;;;;4933372;29;20035;-80
2022/04/25 06:28:09;;;;;;;9.10;5.40;;;11.10;99.90;;;;;;4951164;28;20377;-81
2022/04/25 06:30:35;;;;;;;10.30;5.77;;;11.10;99.90;;;;;;4934065;29;20035;-83
2022/04/25 06:33:01;;;;;;;11.67;6.67;;;11.10;99.90;;;;;;4951358;29;20110;-83
2022/04/25 06:35:30;;;;;;;10.90;6.57;;;11.10;99.90;;;;;;4951667;29;20031;-88
2022/04/25 06:38:06;;;;;;;;;;;11.10;99.90;;;;;;4954752;29;20027;-83
2022/04/25 06:40:31;;;;;;;12.13;8.63;;;11.20;99.90;;;;;;4931357;29;20006;-80
2022/04/25 06:42:58;;;;;;;13.27;9.60;;;11.20;99.90;;;;;;4950577;29;20558;-80
2022/04/25 06:45:24;;;;;;;18.07;12.00;;;11.20;99.90;;;;;;4950857;29;20047;-80
2022/04/25 06:47:50;;;;;;;16.40;10.73;;;11.20;99.90;;;;;;4950988;29;20040;-82
2022/04/25 06:50:16;;;;;;;49.17;15.50;;;11.20;99.90;;;;;;4933448;29;20130;-84
2022/04/25 06:52:42;;;;;;;24.87;16.47;;;11.30;99.90;;;;;;4933285;29;20039;-81
2022/04/25 06:55:09;;;;;;;24.27;17.07;;;11.30;99.90;;;;;;4950056;29;20051;-83
2022/04/25 06:57:35;;;;;;;24.70;18.50;;;11.30;99.90;;;;;;4951058;29;20027;-80
2022/04/25 07:00:03;;;;;;;30.23;17.97;;;11.30;99.90;;;;;;4951176;29;20049;-80
2022/04/25 07:02:29;;;;;;;23.93;17.47;;;11.30;99.90;;;;;;4950699;29;20081;-79
2022/04/25 07:04:57;;;;;;;23.23;18.30;;;11.40;99.90;;;;;;4951173;29;20059;-87
2022/04/25 07:07:25;;;;;;;22.13;15.75;;;11.40;99.90;;;;;;4950766;29;20184;-84
2022/04/25 07:09:54;;;;;;;21.00;14.90;;;11.40;99.90;;;;;;4935973;29;20027;-92
2022/04/25 07:12:19;;;;;;;20.33;12.60;;;11.40;99.90;;;;;;4917186;29;20027;-84
2022/04/25 07:14:51;;;;;;;16.67;12.80;;;11.30;99.90;;;;;;4951757;29;20019;-88
2022/04/25 07:17:38;;;;;;;20.13;13.53;;;11.30;99.90;;;;;;4934114;29;20027;-89
2022/04/25 07:20:05;;;;;;;20.67;12.90;;;11.30;99.90;;;;;;4951286;29;20040;-84
2022/04/25 07:30:44;;;;;;;14.07;11.13;;;11.20;99.90;;;;;;4950565;29;20111;-86
2022/04/25 07:33:10;;;;;;;19.93;11.20;;;11.30;99.90;;;;;;4950476;29;20182;-83
2022/04/25 07:35:36;;;;;;;16.57;11.03;;;11.20;99.90;;;;;;4933284;29;20032;-82
2022/04/25 07:38:03;;;;;;;14.80;9.93;;;11.20;99.90;;;;;;4950350;29;20027;-81
2022/04/25 07:40:28;;;;;;;12.87;8.70;;;11.30;99.90;;;;;;4950364;28;20140;-81
2022/04/25 07:42:55;;;;;;;14.13;8.93;;;11.30;99.90;;;;;;4953395;29;20505;-81
2022/04/25 07:45:21;;;;;;;13.63;9.13;;;11.20;99.90;;;;;;4953508;29;20031;-81
2022/04/25 07:47:47;;;;;;;11.47;8.10;;;11.20;99.90;;;;;;4953867;29;20493;-82
2022/04/25 07:50:15;;;;;;;11.80;8.20;;;11.20;99.90;;;;;;4953665;29;20035;-83
2022/04/25 07:52:41;;;;;;;12.13;8.37;;;11.20;99.90;;;;;;4953922;29;20468;-82
2022/04/25 07:55:08;;;;;;;12.17;8.83;;;11.20;99.90;;;;;;4936067;29;20451;-83
2022/04/25 07:57:34;;;;;;;10.60;8.40;;;11.20;99.90;;;;;;4954043;29;20118;-84
2022/04/25 08:00:05;;;;;;;11.13;8.73;;;11.20;99.90;;;;;;4954452;29;20130;-89
2022/04/25 08:02:32;;;;;;;11.13;8.57;;;11.20;99.90;;;;;;4955969;29;20397;-82
2022/04/25 08:04:58;;;;;;;10.93;8.30;;;11.20;99.90;;;;;;4954414;29;20050;-86
2022/04/25 08:07:24;;;;;;;11.80;8.63;;;11.30;99.90;;;;;;4953576;29;20476;-86
2022/04/25 08:09:50;;;;;;;13.27;9.20;;;11.30;99.90;;;;;;4937068;29;20039;-86
2022/04/25 08:18:00;;;;;;;13.77;9.37;;;11.40;99.90;;;;;;4936903;29;20540;-85
2022/04/25 08:20:33;;;;;;;11.57;9.07;;;11.40;99.90;;;;;;4954096;29;20134;-86
2022/04/25 08:22:59;;;;;;;12.83;9.60;;;11.40;99.90;;;;;;4953562;29;20046;-86
2022/04/25 08:25:25;;;;;;;14.97;10.87;;;11.40;99.90;;;;;;4935701;29;20035;-85
2022/04/25 08:27:54;;;;;;;16.10;11.53;;;11.40;99.90;;;;;;4954728;29;20027;-87
2022/04/25 08:30:21;;;;;;;16.83;12.38;;;11.40;99.90;;;;;;4953945;29;20035;-85
2022/04/25 08:33:19;;;;;;;15.33;11.50;;;11.40;99.90;;;;;;4954444;29;20027;-89
2022/04/25 08:35:46;;;;;;;15.60;11.50;;;11.40;99.90;;;;;;4953531;29;20032;-84
2022/04/25 08:38:13;;;;;;;16.07;12.00;;;11.40;99.90;;;;;;4954638;29;20103;-86
2022/04/25 08:40:44;;;;;;;16.97;12.50;;;11.40;99.90;;;;;;4936239;29;20035;-85
2022/04/25 08:43:12;;;;;;;14.77;11.97;;;11.50;99.90;;;;;;4986070;23;20039;-74
2022/04/25 08:45:38;;;;;;;24.27;17.23;;;11.50;99.90;;;;;;4933807;29;20078;-74
2022/04/25 08:48:06;;;;;;;19.53;14.60;;;11.60;99.90;;;;;;4953938;29;20035;-73
2022/04/25 08:50:32;;;;;;;19.43;13.57;;;11.70;99.90;;;;;;4953366;29;20039;-72
2022/04/25 08:52:59;;;;;;;16.13;12.90;;;11.70;99.90;;;;;;4952887;28;20039;-73
2022/04/25 08:55:26;;;;;;;14.93;11.77;;;11.70;99.90;;;;;;4954913;29;20514;-73
2022/04/25 08:57:54;;;;;;;19.47;14.17;;;11.80;99.90;;;;;;4954104;29;20476;-73
2022/04/25 09:00:19;;;;;;;18.10;14.37;;;11.80;99.90;;;;;;4953623;29;20043;-73
2022/04/25 09:02:47;;;;;;;21.33;15.30;;;11.80;99.90;;;;;;4953225;29;20118;-72
2022/04/25 09:05:13;;;;;;;17.70;14.60;;;11.80;99.90;;;;;;4953894;29;20519;-73
2022/04/25 09:07:40;;;;;;;21.27;14.77;;;11.80;99.90;;;;;;4953361;29;20118;-72
2022/04/25 09:10:08;;;;;;;18.83;14.27;;;11.80;99.90;;;;;;4953344;29;20521;-75
2022/04/25 09:12:38;;;;;;;17.27;14.47;;;11.70;99.90;;;;;;4952888;29;20034;-72
2022/04/25 09:15:06;;;;;;;20.57;14.03;;;11.80;99.90;;;;;;4947856;29;20119;-71
2022/04/25 09:17:35;;;;;;;18.33;14.67;;;11.80;99.90;;;;;;4947561;29;20035;-74
2022/04/25 09:20:01;;;;;;;16.57;13.53;;;11.90;99.90;;;;;;4953149;29;20035;-71
2022/04/25 09:22:42;;;;;;;18.73;14.27;;;12.00;99.90;;;;;;4935384;29;20039;-71
2022/04/25 09:25:10;;;;;;;17.43;13.63;;;12.10;99.90;;;;;;4952866;29;20078;-71
2022/04/25 09:27:37;;;;;;;17.00;13.02;;;12.20;99.90;;;;;;4952429;29;20035;-72
2022/04/25 09:30:16;;;;;;;18.80;14.07;;;12.20;99.90;;;;;;4953284;29;20089;-72
2022/04/25 09:32:44;;;;;;;16.73;13.20;;;12.30;99.90;;;;;;4936062;29;20031;-72
2022/04/25 09:35:32;;;;;;;16.13;12.93;;;12.30;99.90;;;;;;4953302;29;20459;-74
2022/04/25 09:38:03;;;;;;;18.63;14.32;;;12.30;99.90;;;;;;4953061;29;20031;-72
2022/04/25 09:40:31;;;;;;;21.80;15.10;;;12.30;99.90;;;;;;4951874;29;20484;-73
2022/04/25 09:43:16;;;;;;;20.55;15.15;;;12.20;99.90;;;;;;4942588;29;20036;-73
2022/04/25 09:45:44;;;;;;;18.30;14.17;;;12.30;99.90;;;;;;4941940;29;20032;-73
2022/04/25 09:48:18;;;;;;;19.53;14.87;;;12.40;99.90;;;;;;4934360;29;20114;-73
2022/04/25 09:51:03;;;;;;;18.07;13.57;;;12.40;99.90;;;;;;4932155;29;20437;-70
2022/04/25 09:53:53;;;;;;;20.67;14.43;;;12.50;99.90;;;;;;4932280;29;20086;-70
2022/04/25 09:56:21;;;;;;;18.97;14.67;;;12.50;99.90;;;;;;4933575;29;20063;-70
2022/04/25 09:59:05;;;;;;;19.57;15.33;;;12.50;99.90;;;;;;4933633;29;20036;-70
2022/04/25 10:01:35;;;;;;;17.97;14.07;;;12.50;99.90;;;;;;4934326;29;20031;-70
2022/04/25 10:04:03;;;;;;;18.37;14.83;;;12.40;99.90;;;;;;4933639;29;20031;-72
2022/04/25 10:06:34;;;;;;;18.00;13.67;;;12.40;99.90;;;;;;4933551;29;20028;-72
2022/04/25 10:09:06;;;;;;;17.10;13.50;;;12.50;99.90;;;;;;4933521;29;20035;-72
2022/04/25 10:11:39;;;;;;;18.60;14.13;;;12.50;99.90;;;;;;4933197;29;20031;-72
2022/04/25 10:14:05;;;;;;;17.20;12.43;;;12.60;99.90;;;;;;4945779;28;20158;-73
2022/04/25 10:16:34;;;;;;;15.67;12.90;;;12.70;99.90;;;;;;4934904;29;20051;-72
2022/04/25 10:19:00;;;;;;;15.98;12.75;;;12.70;99.90;;;;;;4934944;29;20035;-73
2022/04/25 10:21:30;;;;;;;18.02;13.02;;;12.80;99.90;;;;;;4951916;29;20031;-73
2022/04/25 10:23:59;;;;;;;17.73;13.45;;;12.90;99.90;;;;;;4952098;29;20031;-73
2022/04/25 10:26:27;;;;;;;16.73;12.20;;;13.00;99.90;;;;;;4934684;29;20063;-72
2022/04/25 10:28:57;;;;;;;19.27;13.10;;;13.10;99.90;;;;;;4951652;29;20035;-73
2022/04/25 10:31:41;;;;;;;15.70;12.38;;;13.10;99.90;;;;;;4951935;29;20049;-73
2022/04/25 10:34:08;;;;;;;15.85;12.20;;;13.20;99.90;;;;;;4952156;29;20050;-74
2022/04/25 10:36:37;;;;;;;18.88;12.23;;;13.30;99.90;;;;;;4952527;29;20415;-73
2022/04/25 10:39:19;;;;;;;13.40;11.63;;;13.40;99.90;;;;;;4951956;29;20115;-71
2022/04/25 10:44:42;;;;;;;17.98;13.15;;;13.40;99.70;;;;;;4934249;29;20070;-72
2022/04/25 10:47:12;;;;;;;;;;;13.40;99.70;;;;;;4951984;29;20468;-73
2022/04/25 10:49:40;;;;;;;18.10;14.27;;;13.20;99.60;;;;;;4951791;29;20389;-72
2022/04/25 10:55:14;;;;;;;17.20;13.80;;;13.00;99.90;;;;;;4934384;29;20126;-72
2022/04/25 10:58:07;;;;;;;18.20;13.85;;;13.00;99.90;;;;;;4933641;29;20110;-72
2022/04/25 11:03:16;;;;;;;16.60;13.67;;;13.10;99.90;;;;;;4951470;29;20051;-72
2022/04/25 11:05:43;;;;;;;16.40;13.10;;;13.10;99.90;;;;;;4951558;29;20477;-72
2022/04/25 11:08:19;;;;;;;17.93;13.10;;;13.00;99.90;;;;;;4934056;29;20082;-72
2022/04/25 11:10:56;;;;;;;18.40;13.68;;;13.00;99.90;;;;;;4951310;29;20118;-72
2022/04/25 11:13:26;;;;;;;20.97;15.77;;;13.00;99.90;;;;;;4933963;29;20503;-72
2022/04/25 11:16:18;;;;;;;25.05;17.75;;;13.00;99.90;;;;;;4953333;28;20034;-72
2022/04/25 11:18:45;;;;;;;24.30;18.90;;;12.90;99.90;;;;;;4955193;29;20349;-73
2022/04/25 11:21:16;;;;;;;21.83;16.83;;;12.90;99.90;;;;;;4954868;29;20039;-72
2022/04/25 11:23:45;;;;;;;21.87;17.20;;;12.90;99.90;;;;;;4954963;29;20418;-71
2022/04/25 11:26:21;;;;;;;25.10;18.73;;;13.00;99.90;;;;;;4954915;29;20050;-70
2022/04/25 11:29:01;;;;;;;24.30;18.80;;;12.90;99.90;;;;;;4954527;29;20033;-71
2022/04/25 11:31:27;;;;;;;26.67;19.83;;;12.80;99.90;;;;;;4955558;29;20042;-69
2022/04/25 11:34:02;;;;;;;28.23;19.63;;;12.80;99.90;;;;;;4938800;29;20432;-69
2022/04/25 11:36:29;;;;;;;27.33;18.33;;;12.90;99.90;;;;;;4954812;29;20042;-69
2022/04/25 11:41:41;;;;;;;25.37;18.50;;;13.00;99.90;;;;;;4954650;29;20595;-73
2022/04/25 11:44:07;;;;;;;26.00;18.53;;;13.00;99.90;;;;;;4955547;29;20054;-72
2022/04/25 11:46:35;;;;;;;22.10;17.10;;;12.80;99.90;;;;;;4955786;29;20031;-73
2022/04/25 11:49:02;;;;;;;24.17;18.40;;;12.80;99.90;;;;;;4923090;29;20139;-72
2022/04/25 11:51:30;;;;;;;23.93;17.23;;;12.70;99.90;;;;;;4955024;29;20559;-73
2022/04/25 11:54:03;;;;;;;21.40;16.37;;;12.60;99.90;;;;;;4937830;29;20082;-73
2022/04/25 11:56:33;;;;;;;21.57;16.77;;;12.50;99.90;;;;;;4937515;29;20082;-72
2022/04/25 11:59:05;;;;;;;22.07;16.40;;;12.40;99.90;;;;;;4955312;29;20035;-73
2022/04/25 12:01:37;;;;;;;21.63;16.20;;;12.40;99.90;;;;;;4938160;29;20086;-73
2022/04/25 12:04:25;;;;;;;23.53;16.87;;;12.40;99.90;;;;;;4955635;29;20114;-73
2022/04/25 12:07:05;;;;;;;24.60;16.53;;;12.40;99.90;;;;;;4955149;29;20039;-74
2022/04/25 12:18:18;;;;;;;26.93;18.70;;;12.50;99.90;;;;;;4954686;29;20084;-73
2022/04/25 12:21:05;;;;;;;23.93;18.10;;;12.50;99.90;;;;;;4937924;29;20030;-72
2022/04/25 12:23:41;;;;;;;23.43;17.67;;;12.50;99.90;;;;;;4937707;29;20035;-73
2022/04/25 12:26:21;;;;;;;25.43;17.53;;;12.50;99.90;;;;;;4954506;28;20503;-74
2022/04/25 12:29:06;;;;;;;23.63;17.37;;;12.50;99.90;;;;;;4954524;29;20042;-73
2022/04/25 12:31:50;;;;;;;18.90;13.93;;;12.50;99.90;;;;;;4937144;29;20032;-73
2022/04/25 12:34:19;;;;;;;17.23;13.13;;;12.60;99.90;;;;;;4922298;29;20031;-73
2022/04/25 12:36:56;;;;;;;18.92;13.60;;;12.70;99.90;;;;;;4954299;29;20064;-73
2022/04/25 12:39:24;;;;;;;20.20;14.53;;;12.70;99.90;;;;;;4954826;29;20027;-72
2022/04/25 12:41:54;;;;;;;19.88;14.43;;;12.70;99.90;;;;;;4953786;29;20046;-73
2022/04/25 12:44:21;;;;;;;21.52;14.70;;;12.70;99.90;;;;;;4954933;29;20102;-72
2022/04/25 12:46:49;;;;;;;18.75;14.60;;;12.70;99.90;;;;;;4954084;29;20058;-72
2022/04/25 12:49:20;;;;;;;18.15;14.48;;;12.70;99.90;;;;;;4954711;29;20059;-72
2022/04/25 12:51:51;;;;;;;16.97;13.13;;;12.70;99.90;;;;;;4954484;29;20039;-74
2022/04/25 12:54:46;;;;;;;20.50;15.02;;;12.70;99.90;;;;;;4954723;29;20023;-73
2022/04/25 12:57:19;;;;;;;20.27;15.57;;;12.70;99.90;;;;;;4953866;29;20051;-73
2022/04/25 13:00:00;;;;;;;20.58;15.57;;;12.70;99.90;;;;;;4954605;29;20023;-73
2022/04/25 13:02:36;;;;;;;20.37;15.77;;;12.70;99.90;;;;;;4953957;29;20035;-73
2022/04/25 13:05:13;;;;;;;18.63;14.90;;;12.70;99.90;;;;;;4954385;29;20038;-72
2022/04/25 13:07:44;;;;;;;19.77;16.10;;;12.80;99.90;;;;;;4953844;29;20717;-73
2022/04/25 13:10:20;;;;;;;20.63;16.05;;;12.80;99.90;;;;;;4936452;29;20043;-73
2022/04/25 13:12:53;;;;;;;21.77;17.02;;;12.90;99.90;;;;;;4953679;29;20175;-74
2022/04/25 13:15:22;;;;;;;18.95;15.65;;;13.00;99.90;;;;;;4954252;29;20261;-74
2022/04/25 13:17:49;;;;;;;21.70;16.52;;;13.10;99.90;;;;;;4953579;29;20030;-74
2022/04/25 13:20:18;;;;;;;22.63;16.98;;;13.20;99.90;;;;;;4953880;29;20039;-73
2022/04/25 13:22:44;;;;;;;19.10;15.23;;;13.30;99.90;;;;;;4953498;29;20031;-73
2022/04/25 13:25:14;;;;;;;16.83;13.68;;;13.40;99.90;;;;;;4953013;29;20062;-74
2022/04/25 13:27:41;;;;;;;18.00;14.60;;;13.50;99.90;;;;;;4952821;29;20361;-74
2022/04/25 13:30:09;;;;;;;20.35;15.68;;;13.50;99.90;;;;;;4953301;29;20042;-74
2022/04/25 13:32:36;;;;;;;20.45;15.85;;;13.50;99.90;;;;;;4953011;29;20340;-72
2022/04/25 13:35:03;;;;;;;19.00;14.23;;;13.60;99.90;;;;;;4952862;29;20099;-70
2022/04/25 13:37:30;;;;;;;19.15;14.20;;;13.60;99.90;;;;;;4952026;28;20518;-71